Gardelegen, Germany

1:42 PM CET on February 28, 2017 (GMT +0100)
Gardelegen | | Change Station

Elev 0 ft 52.55 °N, 11.37 °E | Updated 1 minute ago

Overcast
Overcast
48.4 °F
Feels Like 44 °F
N
9.9
Wind Variable Wind from SW
Gusts 16.8 mph

Today
High -- | Low -- °F
--% Chance of Precip.
Yesterday
High -- | Low -- °F
Precip. -- in
Pressure 29.27 in
Visibility 6.2 miles
Clouds Scattered Clouds 4400 ft
Windchill 44 °F
Dew Point 35 °F
Humidity 59%
Rainfall 0.00 in
Snow Depth Not available.
7:02 AM 5:51 PM
Waxing Crescent, 5% visible
METAR EDVE 281220Z 22013G23KT 9999 SCT044 10/00 Q0991
Pressure 29.27 in
Visibility 6.2 miles
Clouds Scattered Clouds 4400 ft
Windchill 44 °F
Dew Point 35 °F
Humidity 59%
Rainfall 0.00 in
Snow Depth Not available.
7:02 AM 5:51 PM
Waxing Crescent, 5% visible
METAR EDVE 281220Z 22013G23KT 9999 SCT044 10/00 Q0991

Get Your Daily Forecast Email!

Thanks for signing up!

Be on the lookout for a verification email in your inbox.

You'll start receiving the daily forecast at 8 AM.

×

10-Day Weather Forecast

×

Almanac

Astronomy

Feb. 28, 2017 Rise Set
Actual Time
Civil Twilight
Nautical Twilight
Astronomical Twilight
Moon
Length of Visible Light
Length of Day
Tomorrow will be .
, % of the Moon is Illuminated

Today's Extremes

Country Highs Country Lows

Community

WunderPhotos

Upload Photos

1,962,540 photos uploaded!

WunderBlog® & News

Nearby

Air Quality

  Air Quality AQ Index Pollutant
Not available.

Snow Depth

Station Depth Elevation

Earthquake Activity

City Distance Mag. Time & Date
Minimum magnitude displayed is 2.5.

Coastal Water Temperatures

Place Temperature

Stations

Nearby Weather Stations

Station Location Temp. Windchill Dew Point Humidity Wind Precip. Elev Updated Type